createdAt,value
2024-01-08T00:01:51.750Z,9.25
2024-01-08T00:04:19.964Z,9.50
2024-01-08T00:06:48.063Z,10.55
2024-01-08T00:09:15.916Z,6.07
2024-01-08T00:11:45.074Z,7.88
2024-01-08T00:14:12.899Z,8.68
2024-01-08T00:16:40.689Z,11.07
2024-01-08T00:19:08.600Z,10.60
2024-01-08T00:21:36.457Z,7.75
2024-01-08T00:24:04.439Z,6.70
2024-01-08T00:26:32.879Z,7.47
2024-01-08T00:29:03.130Z,8.50
2024-01-08T00:31:31.035Z,7.20
2024-01-08T00:33:58.904Z,11.60
2024-01-08T00:36:26.749Z,8.52
2024-01-08T00:38:55.078Z,12.73
2024-01-08T00:41:22.989Z,13.30
2024-01-08T00:43:52.555Z,11.70
2024-01-08T00:46:22.173Z,9.57
2024-01-08T00:48:50.060Z,15.32
2024-01-08T00:51:17.973Z,9.02
2024-01-08T00:53:45.834Z,5.15
2024-01-08T00:56:15.216Z,6.45
2024-01-08T00:58:44.233Z,7.80
2024-01-08T01:01:12.740Z,6.75
2024-01-08T01:03:42.132Z,6.13
2024-01-08T01:06:10.258Z,9.15
2024-01-08T01:08:38.428Z,8.45
2024-01-08T01:11:07.430Z,5.88
2024-01-08T01:13:35.588Z,6.15
2024-01-08T01:16:03.456Z,7.20
2024-01-08T01:18:31.360Z,4.93
2024-01-08T01:21:00.893Z,10.00
2024-01-08T01:23:29.419Z,6.15
2024-01-08T01:25:57.515Z,9.90
2024-01-08T01:28:25.451Z,9.25
2024-01-08T01:30:53.312Z,11.13
2024-01-08T01:33:21.270Z,5.95
2024-01-08T01:35:49.143Z,9.52
2024-01-08T01:38:18.284Z,7.28
2024-01-08T01:40:47.438Z,9.15
2024-01-08T01:43:22.793Z,5.95
2024-01-08T01:45:51.195Z,5.95
2024-01-08T01:48:20.068Z,4.40
2024-01-08T01:50:48.330Z,6.35
2024-01-08T01:53:17.729Z,4.85
2024-01-08T01:55:45.869Z,9.02
2024-01-08T01:58:15.975Z,9.15
2024-01-08T02:00:44.626Z,7.47
2024-01-08T02:03:13.363Z,4.80
2024-01-08T02:05:41.471Z,7.30
2024-01-08T02:08:10.138Z,5.65
2024-01-08T02:10:41.335Z,6.07
2024-01-08T02:13:09.506Z,9.70
2024-01-08T02:15:37.427Z,7.50
2024-01-08T02:18:05.955Z,7.38
2024-01-08T02:20:34.066Z,8.30
2024-01-08T02:23:03.516Z,6.97
2024-01-08T02:25:32.370Z,5.35
2024-01-08T02:28:00.258Z,4.65
2024-01-08T02:30:28.085Z,4.38
2024-01-08T02:32:56.005Z,4.53
2024-01-08T02:35:24.059Z,9.20
2024-01-08T02:37:51.957Z,8.48
2024-01-08T02:40:20.235Z,7.30
2024-01-08T02:42:48.040Z,6.20
2024-01-08T02:45:15.916Z,6.95
2024-01-08T02:47:43.783Z,4.18
2024-01-08T02:50:12.358Z,8.77
2024-01-08T02:52:40.283Z,8.63
2024-01-08T02:55:08.823Z,4.90
2024-01-08T02:57:38.143Z,9.70
2024-01-08T03:00:07.791Z,6.25
2024-01-08T03:02:35.789Z,6.18
2024-01-08T03:05:03.998Z,8.52
2024-01-08T03:07:31.931Z,6.90
2024-01-08T03:10:00.924Z,6.90
2024-01-08T03:12:29.141Z,9.90
2024-01-08T03:14:58.964Z,7.00
2024-01-08T03:17:26.992Z,9.40
2024-01-08T03:19:54.911Z,9.93
2024-01-08T03:22:22.729Z,10.20
2024-01-08T03:24:50.617Z,9.15
2024-01-08T03:27:18.423Z,9.02
2024-01-08T03:29:46.236Z,12.48
2024-01-08T03:32:15.411Z,10.30
2024-01-08T03:34:43.957Z,9.63
2024-01-08T03:37:11.901Z,8.05
2024-01-08T03:39:39.854Z,11.23
2024-01-08T03:42:07.833Z,6.30
2024-01-08T03:44:35.732Z,6.10
2024-01-08T03:47:03.729Z,9.00
2024-01-08T03:49:32.938Z,7.55
2024-01-08T03:52:01.089Z,12.15
2024-01-08T03:54:28.898Z,11.52
2024-01-08T03:56:56.710Z,8.65
2024-01-08T03:59:24.567Z,10.23
2024-01-08T04:01:53.490Z,10.05
2024-01-08T04:04:22.392Z,10.40
2024-01-08T04:06:51.591Z,15.30
2024-01-08T04:09:19.423Z,9.73
2024-01-08T04:11:47.265Z,11.63
2024-01-08T04:14:15.270Z,15.77
2024-01-08T04:16:43.189Z,24.42
2024-01-08T04:19:11.213Z,10.95
2024-01-08T04:21:39.105Z,13.88
2024-01-08T04:24:08.486Z,9.85
2024-01-08T04:26:36.627Z,11.68
2024-01-08T04:29:04.534Z,9.48
2024-01-08T04:31:32.647Z,14.25
2024-01-08T04:34:00.677Z,11.80
2024-01-08T04:36:28.592Z,11.30
2024-01-08T04:38:56.401Z,16.50
2024-01-08T04:41:25.596Z,8.65
2024-01-08T04:43:53.480Z,9.32
2024-01-08T04:46:21.321Z,16.15
2024-01-08T04:48:49.209Z,12.73
2024-01-08T04:51:23.936Z,10.23
2024-01-08T04:56:24.342Z,14.65
2024-01-08T04:58:54.677Z,14.73
2024-01-08T05:01:23.285Z,11.32
2024-01-08T05:03:51.546Z,11.13
2024-01-08T05:06:20.416Z,8.77
2024-01-08T05:08:48.492Z,16.40
2024-01-08T05:11:16.451Z,11.02
2024-01-08T05:13:44.394Z,11.85
2024-01-08T05:16:13.620Z,11.63
2024-01-08T05:18:41.648Z,13.98
2024-01-08T05:21:09.895Z,11.48
2024-01-08T05:23:37.898Z,13.45
2024-01-08T05:26:05.907Z,14.68
2024-01-08T05:28:33.866Z,12.65
2024-01-08T05:31:01.733Z,16.35
2024-01-08T05:33:31.129Z,10.75
2024-01-08T05:35:59.090Z,13.90
2024-01-08T05:38:27.030Z,15.10
2024-01-08T05:40:56.771Z,16.15
2024-01-08T05:43:25.023Z,11.15
2024-01-08T05:45:53.436Z,15.25
2024-01-08T05:48:21.335Z,17.75
2024-01-08T05:50:50.540Z,14.48
2024-01-08T05:53:18.393Z,11.77
2024-01-08T05:55:46.502Z,16.58
2024-01-08T05:58:14.664Z,13.57
2024-01-08T06:00:42.605Z,16.40
2024-01-08T06:03:10.487Z,19.40
2024-01-08T06:05:38.444Z,17.33
2024-01-08T06:08:09.920Z,19.75
2024-01-08T06:10:39.266Z,13.98
2024-01-08T06:13:07.681Z,24.48
2024-01-08T06:15:35.828Z,11.63
2024-01-08T06:18:05.604Z,19.27
2024-01-08T06:20:34.854Z,17.88
2024-01-08T06:23:03.244Z,17.88
2024-01-08T06:25:32.475Z,21.60
2024-01-08T06:28:00.409Z,16.20
2024-01-08T06:30:28.274Z,19.25
2024-01-08T06:32:56.249Z,16.05
2024-01-08T06:35:25.050Z,15.65
2024-01-08T06:37:53.049Z,15.68
2024-01-08T06:40:21.841Z,13.10
2024-01-08T06:43:00.490Z,23.10
2024-01-08T06:45:29.825Z,25.30
2024-01-08T06:47:57.818Z,23.15
2024-01-08T06:50:26.217Z,17.65
2024-01-08T06:52:54.161Z,17.85
2024-01-08T06:55:21.988Z,21.20
2024-01-08T06:57:53.709Z,27.48
2024-01-08T07:00:22.055Z,18.45
2024-01-08T07:02:52.201Z,18.73
2024-01-08T07:05:20.920Z,27.15
2024-01-08T07:07:48.879Z,16.15
2024-01-08T07:10:16.818Z,20.45
2024-01-08T07:12:44.597Z,16.42
2024-01-08T07:15:37.988Z,24.45
2024-01-08T07:18:06.921Z,17.95
2024-01-08T07:20:34.904Z,16.45
2024-01-08T07:23:03.409Z,24.95
2024-01-08T07:25:33.738Z,23.38
2024-01-08T07:28:02.318Z,20.65
2024-01-08T07:30:31.588Z,17.80
2024-01-08T07:32:59.743Z,12.68
2024-01-08T07:35:27.753Z,18.40
2024-01-08T07:37:57.178Z,21.27
2024-01-08T07:40:26.145Z,23.48
2024-01-08T07:42:55.097Z,13.70
2024-01-08T07:45:24.938Z,20.55
2024-01-08T07:47:54.546Z,16.00
2024-01-08T07:50:22.590Z,17.90
2024-01-08T07:52:50.506Z,15.95
2024-01-08T07:55:18.532Z,21.42
2024-01-08T07:57:46.377Z,14.65
2024-01-08T08:00:15.142Z,20.00
2024-01-08T08:02:43.839Z,16.23
2024-01-08T08:05:13.249Z,18.38
2024-01-08T08:07:41.454Z,16.50
2024-01-08T08:10:11.403Z,13.80
2024-01-08T08:12:39.645Z,17.15
2024-01-08T08:15:08.312Z,17.20
2024-01-08T08:17:36.255Z,23.33
2024-01-08T08:20:06.800Z,17.58
2024-01-08T08:22:38.272Z,21.58
2024-01-08T08:25:08.471Z,17.88
2024-01-08T08:27:36.616Z,18.23
2024-01-08T08:30:04.978Z,16.83
2024-01-08T08:32:32.911Z,23.23
2024-01-08T08:35:00.937Z,14.93
2024-01-08T08:37:39.511Z,15.77
2024-01-08T08:40:17.797Z,19.08
2024-01-08T08:42:45.767Z,16.55
2024-01-08T08:45:13.718Z,17.65
2024-01-08T08:47:42.264Z,16.80
2024-01-08T08:50:13.251Z,15.73
2024-01-08T08:52:41.369Z,16.13
2024-01-08T08:55:11.511Z,18.30
2024-01-08T08:57:41.086Z,17.23
2024-01-08T09:00:09.947Z,14.40
2024-01-08T09:02:38.584Z,18.08
2024-01-08T09:05:09.596Z,16.15
2024-01-08T09:07:38.107Z,15.32
2024-01-08T09:10:06.911Z,21.15
2024-01-08T09:12:34.720Z,15.52
2024-01-08T09:15:03.991Z,12.63
2024-01-08T09:17:34.082Z,15.30
2024-01-08T09:20:02.213Z,16.67
2024-01-08T09:22:30.212Z,27.65
2024-01-08T09:24:58.211Z,13.82
2024-01-08T09:27:26.629Z,21.45
2024-01-08T09:29:54.472Z,25.45
2024-01-08T09:32:23.742Z,15.23
2024-01-08T09:34:51.644Z,19.75
2024-01-08T09:37:21.597Z,16.33
2024-01-08T09:39:49.583Z,15.57
2024-01-08T09:42:17.590Z,17.95
2024-01-08T09:44:48.712Z,19.63
2024-01-08T09:47:17.833Z,23.58
2024-01-08T09:49:48.417Z,16.25
2024-01-08T09:52:16.640Z,18.25
2024-01-08T09:54:44.596Z,18.63
2024-01-08T09:57:12.867Z,20.73
2024-01-08T09:59:40.831Z,18.95
2024-01-08T10:02:17.828Z,18.42
2024-01-08T10:04:46.187Z,21.40
2024-01-08T10:07:14.540Z,23.35
2024-01-08T10:09:42.708Z,15.93
2024-01-08T10:12:11.385Z,16.05
2024-01-08T10:14:39.366Z,16.10
2024-01-08T10:17:07.418Z,18.70
2024-01-08T10:19:35.546Z,14.32
2024-01-08T10:22:12.371Z,15.32
2024-01-08T10:24:42.363Z,25.90
2024-01-08T10:27:11.131Z,17.17
2024-01-08T10:29:40.737Z,16.33
2024-01-08T10:32:09.655Z,19.08
2024-01-08T10:34:38.174Z,16.70
2024-01-08T10:37:06.118Z,17.15
2024-01-08T10:39:47.207Z,17.35
2024-01-08T10:42:19.409Z,28.75
2024-01-08T10:44:47.878Z,16.27
2024-01-08T10:47:19.248Z,16.30
2024-01-08T10:49:52.153Z,18.20
2024-01-08T10:52:26.722Z,19.05
2024-01-08T10:54:58.460Z,17.23
2024-01-08T10:57:37.575Z,20.42
2024-01-08T11:00:11.262Z,17.65
2024-01-08T11:02:40.470Z,15.77
2024-01-08T11:05:11.214Z,14.45
2024-01-08T11:07:40.649Z,19.00
2024-01-08T11:10:11.278Z,18.90
2024-01-08T11:12:40.631Z,18.50
2024-01-08T11:15:09.458Z,19.05
2024-01-08T11:17:37.481Z,19.33
2024-01-08T11:20:08.548Z,16.15
2024-01-08T11:22:38.804Z,23.75
2024-01-08T11:25:08.012Z,15.40
2024-01-08T11:27:37.173Z,20.60
2024-01-08T11:30:06.452Z,25.13
2024-01-08T11:33:20.149Z,16.50
2024-01-08T11:36:00.557Z,19.58
2024-01-08T11:38:29.253Z,26.83
2024-01-08T11:40:57.719Z,30.25
2024-01-08T11:43:28.269Z,15.18
2024-01-08T11:45:56.108Z,20.13
2024-01-08T11:48:24.160Z,22.17
2024-01-08T11:50:52.276Z,30.10
2024-01-08T11:53:21.736Z,23.92
2024-01-08T11:55:49.655Z,24.00
2024-01-08T11:58:17.909Z,22.45
2024-01-08T12:00:47.956Z,19.45
2024-01-08T12:03:15.981Z,28.80
2024-01-08T12:05:44.028Z,25.42
2024-01-08T12:08:18.240Z,16.95
2024-01-08T12:10:54.371Z,24.73
2024-01-08T12:13:22.225Z,20.20
2024-01-08T12:15:51.959Z,22.58
2024-01-08T12:18:20.115Z,19.45
2024-01-08T12:20:48.158Z,23.92
2024-01-08T12:23:16.123Z,24.70
2024-01-08T12:25:44.533Z,28.88
2024-01-08T12:28:12.414Z,25.80
2024-01-08T12:30:41.214Z,19.08
2024-01-08T12:33:10.873Z,16.50
2024-01-08T12:35:39.315Z,17.15
2024-01-08T12:38:07.605Z,21.08
2024-01-08T12:40:35.521Z,26.83
2024-01-08T12:43:04.675Z,30.98
2024-01-08T12:45:34.574Z,21.42
2024-01-08T12:48:02.618Z,27.27
2024-01-08T12:50:31.954Z,20.80
2024-01-08T12:52:59.952Z,20.20
2024-01-08T12:55:27.880Z,16.95
2024-01-08T12:57:58.506Z,27.17
2024-01-08T13:00:28.886Z,24.25
2024-01-08T13:02:57.018Z,22.70
2024-01-08T13:05:25.038Z,20.23
2024-01-08T13:07:54.437Z,28.35
2024-01-08T13:10:22.683Z,31.92
2024-01-08T13:12:50.559Z,19.23
2024-01-08T13:15:18.351Z,29.33
2024-01-08T13:17:46.360Z,20.30
2024-01-08T13:20:22.856Z,20.73
2024-01-08T13:22:56.666Z,21.17
2024-01-08T13:25:25.475Z,21.85
2024-01-08T13:27:53.353Z,18.55
2024-01-08T13:30:21.626Z,22.85
2024-01-08T13:32:49.911Z,21.13
2024-01-08T13:35:19.018Z,23.67
2024-01-08T13:37:47.136Z,21.27
2024-01-08T13:40:16.486Z,17.67
2024-01-08T13:42:45.895Z,24.05
2024-01-08T13:45:13.845Z,18.92
2024-01-08T13:47:42.167Z,22.00
2024-01-08T13:50:11.119Z,21.80
2024-01-08T13:52:39.181Z,17.60
2024-01-08T13:55:10.695Z,18.02
2024-01-08T13:57:40.040Z,23.85
2024-01-08T14:00:08.986Z,24.48
2024-01-08T14:02:37.392Z,23.95
2024-01-08T14:05:05.705Z,24.27
2024-01-08T14:07:33.722Z,20.65
2024-01-08T14:10:02.680Z,24.20
2024-01-08T14:12:30.867Z,29.27
2024-01-08T14:15:00.070Z,28.52
2024-01-08T14:17:28.098Z,33.63
2024-01-08T14:19:56.988Z,27.20
2024-01-08T14:22:25.206Z,22.35
2024-01-08T14:24:53.057Z,26.88
2024-01-08T14:27:21.025Z,28.08
2024-01-08T14:29:51.632Z,37.95
2024-01-08T14:32:20.917Z,23.20
2024-01-08T14:34:48.914Z,22.67
2024-01-08T14:37:17.985Z,24.45
2024-01-08T14:39:46.398Z,23.92
2024-01-08T14:42:14.395Z,27.63
2024-01-08T14:44:42.536Z,25.23
2024-01-08T14:47:10.764Z,20.80
2024-01-08T14:49:40.723Z,26.73
2024-01-08T14:52:08.817Z,22.30
2024-01-08T14:54:36.768Z,25.77
2024-01-08T14:57:05.747Z,22.42
2024-01-08T14:59:35.094Z,29.77
2024-01-08T15:02:03.870Z,23.92
2024-01-08T15:04:31.850Z,26.92
2024-01-08T15:07:02.065Z,27.05
2024-01-08T15:09:30.033Z,30.33
2024-01-08T15:11:57.978Z,27.98
2024-01-08T15:14:26.391Z,35.13
2024-01-08T15:16:54.372Z,31.88
2024-01-08T15:19:22.481Z,25.33
2024-01-08T15:21:52.454Z,18.17
2024-01-08T15:24:22.664Z,23.70
2024-01-08T15:26:50.715Z,28.25
2024-01-08T15:29:19.442Z,29.92
2024-01-08T15:31:47.544Z,28.00
2024-01-08T15:34:15.434Z,19.15
2024-01-08T15:36:43.325Z,31.50
2024-01-08T15:39:15.288Z,22.98
2024-01-08T15:41:44.829Z,29.63
2024-01-08T15:44:12.875Z,43.88
2024-01-08T15:46:42.339Z,21.88
2024-01-08T15:49:10.752Z,23.52
2024-01-08T15:51:38.694Z,27.83
2024-01-08T15:54:06.723Z,23.15
2024-01-08T15:56:35.292Z,24.45
2024-01-08T15:59:04.562Z,33.35
2024-01-08T16:01:33.516Z,30.02
2024-01-08T16:04:02.100Z,17.85
2024-01-08T16:06:30.243Z,27.80
2024-01-08T16:08:58.585Z,29.80
2024-01-08T16:11:26.836Z,24.55
2024-01-08T16:13:54.760Z,28.20
2024-01-08T16:16:25.662Z,19.30
2024-01-08T16:18:53.904Z,28.00
2024-01-08T16:21:22.485Z,27.58
2024-01-08T16:23:58.617Z,27.08
2024-01-08T16:26:34.382Z,25.42
2024-01-08T16:29:02.265Z,28.67
2024-01-08T16:31:31.557Z,22.48
2024-01-08T16:33:59.608Z,29.80
2024-01-08T16:36:27.606Z,38.72
2024-01-08T16:38:55.575Z,30.55
2024-01-08T16:41:23.777Z,25.63
2024-01-08T16:43:51.761Z,25.48
2024-01-08T16:46:19.880Z,24.13
2024-01-08T16:48:49.304Z,32.30
2024-01-08T16:51:17.987Z,22.58
2024-01-08T16:53:46.151Z,22.58
2024-01-08T16:56:14.601Z,26.80
2024-01-08T16:58:42.640Z,30.50
2024-01-08T17:01:10.809Z,34.95
2024-01-08T17:03:38.823Z,27.10
2024-01-08T17:06:10.962Z,45.63
2024-01-08T17:08:39.362Z,21.30
2024-01-08T17:11:07.487Z,27.27
2024-01-08T17:13:35.397Z,27.65
2024-01-08T17:16:03.318Z,31.83
2024-01-08T17:18:31.408Z,22.95
2024-01-08T17:20:59.414Z,31.08
2024-01-08T17:23:29.043Z,25.25
2024-01-08T17:25:56.992Z,25.55
2024-01-08T17:28:25.013Z,28.58
2024-01-08T17:30:52.968Z,31.88
2024-01-08T17:33:22.223Z,28.50
2024-01-08T17:35:50.639Z,34.28
2024-01-08T17:38:19.092Z,36.65
2024-01-08T17:40:48.339Z,24.35
2024-01-08T17:43:16.224Z,23.75
2024-01-08T17:45:44.196Z,22.77
2024-01-08T17:48:13.696Z,27.42
2024-01-08T17:50:41.657Z,31.17
2024-01-08T17:53:09.801Z,44.75
2024-01-08T17:55:37.718Z,35.38
2024-01-08T17:58:07.648Z,32.38
2024-01-08T18:00:36.695Z,28.08
2024-01-08T18:03:04.939Z,37.58
2024-01-08T18:05:33.174Z,26.77
2024-01-08T18:08:01.131Z,32.42
2024-01-08T18:10:29.430Z,27.17
2024-01-08T18:12:57.238Z,21.73
2024-01-08T18:15:27.649Z,34.85
2024-01-08T18:17:56.437Z,30.73
2024-01-08T18:20:24.783Z,31.17
2024-01-08T18:22:52.814Z,40.97
2024-01-08T18:25:21.586Z,27.80
2024-01-08T18:27:49.713Z,28.23
2024-01-08T18:30:19.557Z,29.83
2024-01-08T18:32:49.009Z,28.30
2024-01-08T18:35:17.000Z,24.15
2024-01-08T18:37:45.014Z,24.17
2024-01-08T18:40:15.936Z,29.27
2024-01-08T18:42:43.905Z,32.08
2024-01-08T18:45:13.052Z,19.75
2024-01-08T18:47:41.195Z,24.08
2024-01-08T18:50:11.483Z,18.73
2024-01-08T18:52:39.646Z,23.23
2024-01-08T18:55:08.782Z,27.65
2024-01-08T18:57:36.634Z,29.23
2024-01-08T19:00:06.034Z,22.00
2024-01-08T19:02:34.275Z,28.23
2024-01-08T19:05:02.491Z,26.67
2024-01-08T19:07:31.979Z,28.17
2024-01-08T19:09:59.923Z,22.95
2024-01-08T19:12:28.533Z,31.23
2024-01-08T19:14:56.389Z,20.80
2024-01-08T19:17:24.347Z,25.85
2024-01-08T19:19:52.401Z,35.65
2024-01-08T19:22:20.533Z,30.17
2024-01-08T19:24:49.760Z,27.98
2024-01-08T19:27:17.652Z,34.15
2024-01-08T19:29:46.623Z,30.75
2024-01-08T19:32:14.700Z,27.55
2024-01-08T19:34:43.169Z,38.97
2024-01-08T19:37:13.379Z,25.45
2024-01-08T19:39:42.171Z,22.70
2024-01-08T19:42:11.785Z,23.77
2024-01-08T19:44:39.752Z,20.75
2024-01-08T19:47:09.486Z,28.02
2024-01-08T19:49:37.557Z,26.63
2024-01-08T19:52:05.945Z,25.80
2024-01-08T19:54:34.508Z,26.95
2024-01-08T19:57:02.519Z,29.10
2024-01-08T19:59:33.502Z,25.67
2024-01-08T20:02:01.706Z,27.35
2024-01-08T20:04:30.832Z,21.35
2024-01-08T20:06:58.969Z,25.45
2024-01-08T20:09:27.008Z,25.70
2024-01-08T20:11:55.221Z,31.58
2024-01-08T20:14:27.533Z,22.67
2024-01-08T20:16:57.207Z,29.75
2024-01-08T20:19:25.290Z,36.58
2024-01-08T20:21:53.748Z,34.90
2024-01-08T20:24:21.633Z,28.50
2024-01-08T20:26:49.743Z,29.80
2024-01-08T20:29:17.772Z,34.50
2024-01-08T20:31:46.070Z,25.55
2024-01-08T20:34:15.603Z,32.17
2024-01-08T20:36:43.570Z,31.90
2024-01-08T20:39:11.983Z,32.60
2024-01-08T20:41:40.118Z,33.13
2024-01-08T20:44:08.060Z,27.45
2024-01-08T20:46:36.393Z,26.30
2024-01-08T20:49:04.420Z,29.63
2024-01-08T20:51:33.849Z,26.00
2024-01-08T20:54:01.869Z,29.63
2024-01-08T20:56:30.093Z,21.75
2024-01-08T20:58:58.176Z,26.33
2024-01-08T21:01:27.204Z,25.88
2024-01-08T21:03:55.102Z,28.73
2024-01-08T21:06:23.705Z,31.10
2024-01-08T21:08:53.273Z,22.42
2024-01-08T21:11:21.309Z,34.85
2024-01-08T21:13:49.436Z,31.65
2024-01-08T21:16:17.366Z,31.25
2024-01-08T21:18:45.417Z,25.38
2024-01-08T21:21:13.406Z,25.63
2024-01-08T21:23:41.513Z,28.90
2024-01-08T21:26:11.040Z,25.77
2024-01-08T21:28:39.014Z,26.10
2024-01-08T21:31:10.962Z,25.58
2024-01-08T21:33:40.551Z,29.60
2024-01-08T21:36:11.377Z,29.35
2024-01-08T21:38:43.511Z,25.92
2024-01-08T21:41:13.145Z,34.97
2024-01-08T21:43:41.034Z,28.98
2024-01-08T21:46:08.145Z,31.92
2024-01-08T21:48:36.322Z,25.10
2024-01-08T21:51:04.805Z,32.67
2024-01-08T21:53:32.681Z,21.85
2024-01-08T21:56:00.532Z,33.38
2024-01-08T21:58:29.810Z,29.27
2024-01-08T22:00:57.889Z,23.33
2024-01-08T22:03:25.865Z,28.25
2024-01-08T22:05:53.900Z,35.28
2024-01-08T22:08:23.298Z,39.45
2024-01-08T22:10:51.199Z,26.77
2024-01-08T22:13:19.084Z,35.88
2024-01-08T22:15:52.583Z,29.95
2024-01-08T22:18:20.556Z,40.03
2024-01-08T22:20:48.816Z,32.72
2024-01-08T22:23:16.911Z,29.88
2024-01-08T22:25:45.042Z,33.70
2024-01-08T22:28:13.148Z,41.70
2024-01-08T22:30:41.072Z,32.50
2024-01-08T22:33:10.894Z,34.30
2024-01-08T22:35:39.051Z,26.42
2024-01-08T22:38:06.996Z,29.40
2024-01-08T22:40:34.945Z,35.05
2024-01-08T22:43:02.837Z,32.50
2024-01-08T22:45:30.739Z,31.55
2024-01-08T22:47:58.708Z,27.27
2024-01-08T22:50:27.980Z,28.70
2024-01-08T22:52:54.878Z,27.58
2024-01-08T22:55:22.980Z,30.02
2024-01-08T22:57:50.845Z,26.08
2024-01-08T23:00:19.775Z,24.55
2024-01-08T23:02:47.751Z,31.83
2024-01-08T23:05:15.732Z,27.77
2024-01-08T23:07:45.202Z,24.40
2024-01-08T23:10:13.108Z,31.25
2024-01-08T23:12:41.024Z,22.67
2024-01-08T23:15:09.942Z,37.63
2024-01-08T23:17:38.497Z,30.88
2024-01-08T23:20:09.282Z,25.83
2024-01-08T23:22:37.237Z,24.35
2024-01-08T23:25:07.386Z,27.90
2024-01-08T23:27:35.319Z,29.23
2024-01-08T23:30:04.858Z,25.60
2024-01-08T23:32:33.151Z,19.67
2024-01-08T23:35:01.508Z,15.25
2024-01-08T23:37:29.444Z,20.52
2024-01-08T23:39:57.441Z,29.38
2024-01-08T23:42:26.612Z,29.48
2024-01-08T23:44:54.696Z,26.42
2024-01-08T23:47:23.766Z,24.80
2024-01-08T23:49:51.844Z,25.23
2024-01-08T23:52:19.777Z,36.63
2024-01-08T23:54:47.650Z,25.42
2024-01-08T23:57:15.480Z,34.22
2024-01-08T23:59:44.819Z,26.65
